createdAt,value
2019-01-06T00:01:49.348Z,14.59
2019-01-06T00:04:40.079Z,14.56
2019-01-06T00:07:39.459Z,14.54
2019-01-06T00:10:32.644Z,14.54
2019-01-06T00:13:14.891Z,14.65
2019-01-06T00:16:17.732Z,14.63
2019-01-06T00:19:06.590Z,14.63
2019-01-06T00:21:56.268Z,14.56
2019-01-06T00:24:45.129Z,14.57
2019-01-06T00:27:34.588Z,14.49
2019-01-06T00:30:40.549Z,14.49
2019-01-06T00:33:37.605Z,14.35
2019-01-06T00:36:32.165Z,14.35
2019-01-06T00:39:21.158Z,14.40
2019-01-06T00:42:18.605Z,14.17
2019-01-06T00:45:07.768Z,14.39
2019-01-06T00:48:07.696Z,14.30
2019-01-06T00:50:58.245Z,14.12
2019-01-06T00:53:47.350Z,13.96
2019-01-06T00:56:38.260Z,14.15
2019-01-06T00:59:40.997Z,14.37
2019-01-06T01:02:41.003Z,14.31
2019-01-06T01:05:37.414Z,14.31
2019-01-06T01:08:30.878Z,14.37
2019-01-06T01:11:19.741Z,14.35
2019-01-06T01:14:19.138Z,14.35
2019-01-06T01:17:09.425Z,14.40
2019-01-06T01:19:58.395Z,14.42
2019-01-06T01:22:51.861Z,14.24
2019-01-06T01:25:51.883Z,14.34
2019-01-06T01:28:53.951Z,14.22
2019-01-06T01:31:43.735Z,14.22
2019-01-06T01:34:27.741Z,14.27
2019-01-06T01:37:30.450Z,14.44
2019-01-06T01:40:19.114Z,14.44
2019-01-06T01:43:08.796Z,14.38
2019-01-06T01:45:59.882Z,14.36
2019-01-06T01:48:50.575Z,14.36
2019-01-06T01:51:55.939Z,14.27
2019-01-06T01:54:45.521Z,14.43
2019-01-06T01:57:51.063Z,14.45
2019-01-06T02:00:41.044Z,14.19
2019-01-06T02:03:37.388Z,13.98
2019-01-06T02:06:40.099Z,13.98
2019-01-06T02:09:36.165Z,14.10
2019-01-06T02:12:25.671Z,14.00
2019-01-06T02:15:22.913Z,14.00
2019-01-06T02:18:21.952Z,14.00
2019-01-06T02:21:10.354Z,14.00
2019-01-06T02:23:59.423Z,14.28
2019-01-06T02:26:48.284Z,14.32
2019-01-06T02:29:40.021Z,14.25
2019-01-06T02:32:29.237Z,14.25
2019-01-06T02:35:12.164Z,15.76
2019-01-06T02:38:17.637Z,15.76
2019-01-06T02:41:06.905Z,15.83
2019-01-06T02:43:56.275Z,15.83
2019-01-06T02:46:47.402Z,15.83
2019-01-06T02:49:38.505Z,15.60
2019-01-06T02:52:27.962Z,15.93
2019-01-06T02:55:18.278Z,15.93
2019-01-06T02:58:08.884Z,15.94
2019-01-06T03:01:02.568Z,15.90
2019-01-06T03:03:49.729Z,15.89
2019-01-06T03:06:49.370Z,15.89
2019-01-06T03:09:35.290Z,15.54
2019-01-06T03:12:24.127Z,15.97
2019-01-06T03:15:13.797Z,15.82
2019-01-06T03:18:02.971Z,15.81
2019-01-06T03:21:01.313Z,16.01
2019-01-06T03:24:15.670Z,15.62
2019-01-06T03:27:05.753Z,15.62
2019-01-06T03:29:55.907Z,15.41
2019-01-06T03:32:57.624Z,15.78
2019-01-06T03:35:46.991Z,15.79
2019-01-06T03:38:47.324Z,15.99
2019-01-06T03:41:36.397Z,15.90
2019-01-06T03:44:26.461Z,15.88
2019-01-06T03:47:23.100Z,15.95
2019-01-06T03:50:27.844Z,15.94
2019-01-06T03:53:16.155Z,15.94
2019-01-06T03:56:05.555Z,15.76
2019-01-06T03:58:53.283Z,15.94
2019-01-06T04:05:00.639Z,15.96
2019-01-06T04:07:53.755Z,15.94
2019-01-06T04:11:02.486Z,16.00
2019-01-06T04:13:53.337Z,15.89
2019-01-06T04:16:50.574Z,15.98
2019-01-06T04:19:42.949Z,15.98
2019-01-06T04:22:52.241Z,15.89
2019-01-06T04:25:43.237Z,15.48
2019-01-06T04:28:32.725Z,15.39
2019-01-06T04:31:32.770Z,15.39
2019-01-06T04:34:22.702Z,15.77
2019-01-06T04:37:25.067Z,15.80
2019-01-06T04:40:10.773Z,15.82
2019-01-06T04:43:04.335Z,15.60
2019-01-06T04:46:08.331Z,15.73
2019-01-06T04:48:57.709Z,15.73
2019-01-06T04:52:03.839Z,15.99
2019-01-06T04:55:00.429Z,15.99
2019-01-06T04:57:51.601Z,15.95
2019-01-06T05:00:59.196Z,15.87
2019-01-06T05:03:55.449Z,15.72
2019-01-06T05:06:44.028Z,15.61
2019-01-06T05:09:32.287Z,15.61
2019-01-06T05:12:40.767Z,15.56
2019-01-06T05:15:34.961Z,15.86
2019-01-06T05:18:23.919Z,15.86
2019-01-06T05:21:13.543Z,16.12
2019-01-06T05:24:09.425Z,16.12
2019-01-06T05:26:58.432Z,16.06
2019-01-06T05:29:49.277Z,15.79
2019-01-06T05:32:52.570Z,15.91
2019-01-06T05:35:45.837Z,15.91
2019-01-06T05:38:46.369Z,16.19
2019-01-06T05:41:39.711Z,16.11
2019-01-06T05:44:29.516Z,16.07
2019-01-06T05:47:38.624Z,15.96
2019-01-06T05:50:44.708Z,15.96
2019-01-06T05:53:33.870Z,16.06
2019-01-06T05:56:23.244Z,16.06
2019-01-06T05:59:12.298Z,16.14
2019-01-06T06:02:12.318Z,16.28
2019-01-06T06:05:02.813Z,16.28
2019-01-06T06:07:59.649Z,16.33
2019-01-06T06:10:50.161Z,16.52
2019-01-06T06:13:50.071Z,16.52
2019-01-06T06:16:40.566Z,16.59
2019-01-06T06:19:26.264Z,16.61
2019-01-06T06:22:16.660Z,16.55
2019-01-06T06:25:05.873Z,16.67
2019-01-06T06:27:55.075Z,16.83
2019-01-06T06:30:58.015Z,16.83
2019-01-06T06:33:49.262Z,16.79
2019-01-06T06:36:38.352Z,16.91
2019-01-06T06:39:26.987Z,16.99
2019-01-06T06:42:08.793Z,16.99
2019-01-06T06:44:57.856Z,17.04
2019-01-06T06:47:55.371Z,17.07
2019-01-06T06:50:52.065Z,17.17
2019-01-06T06:53:51.567Z,17.22
2019-01-06T06:56:46.417Z,17.22
2019-01-06T06:59:49.575Z,17.32
2019-01-06T07:03:21.316Z,17.61
2019-01-06T07:06:18.139Z,17.61
2019-01-06T07:09:11.413Z,17.40
2019-01-06T07:12:00.799Z,17.48
2019-01-06T07:14:51.598Z,17.45
2019-01-06T07:18:05.536Z,17.38
2019-01-06T07:20:55.526Z,17.48
2019-01-06T07:23:45.391Z,17.58
2019-01-06T07:26:34.038Z,17.67
2019-01-06T07:29:23.214Z,17.67
2019-01-06T07:32:16.777Z,17.66
2019-01-06T07:35:12.093Z,17.97
2019-01-06T07:38:06.825Z,17.98
2019-01-06T07:41:03.432Z,17.98
2019-01-06T07:43:53.829Z,18.02
2019-01-06T07:46:44.549Z,18.02
2019-01-06T07:49:25.376Z,17.87
2019-01-06T07:52:13.306Z,17.94
2019-01-06T07:54:57.480Z,17.94
2019-01-06T07:57:41.247Z,17.94
2019-01-06T08:00:43.588Z,17.80
2019-01-06T08:03:33.163Z,17.99
2019-01-06T08:06:22.431Z,17.99
2019-01-06T08:09:12.210Z,18.07
2019-01-06T08:12:01.572Z,18.23
2019-01-06T08:14:50.943Z,18.19
2019-01-06T08:17:59.765Z,18.19
2019-01-06T08:20:49.653Z,17.98
2019-01-06T08:23:50.031Z,18.27
2019-01-06T08:26:46.512Z,18.27
2019-01-06T08:29:49.092Z,18.36
2019-01-06T08:32:38.359Z,18.36
2019-01-06T08:35:27.526Z,18.19
2019-01-06T08:38:33.691Z,18.04
2019-01-06T08:41:23.263Z,18.28
2019-01-06T08:44:16.313Z,17.95
2019-01-06T08:47:12.718Z,18.21
2019-01-06T08:50:12.356Z,18.25
2019-01-06T08:53:02.640Z,18.25
2019-01-06T08:55:53.039Z,18.19
2019-01-06T08:58:52.661Z,18.14
2019-01-06T09:01:44.243Z,18.37
2019-01-06T09:04:37.023Z,18.29
2019-01-06T09:07:30.199Z,18.29
2019-01-06T09:10:33.388Z,18.34
2019-01-06T09:13:24.390Z,18.34
2019-01-06T09:16:31.065Z,18.30
2019-01-06T09:19:22.064Z,18.26
2019-01-06T09:22:14.091Z,18.09
2019-01-06T09:25:10.634Z,18.09
2019-01-06T09:28:13.007Z,18.22
2019-01-06T09:31:06.677Z,18.22
2019-01-06T09:34:03.002Z,18.31
2019-01-06T09:36:52.073Z,18.27
2019-01-06T09:39:37.561Z,18.15
2019-01-06T09:42:31.022Z,18.13
2019-01-06T09:45:22.016Z,18.19
2019-01-06T09:48:10.984Z,18.19
2019-01-06T09:51:03.622Z,18.13
2019-01-06T09:53:57.698Z,18.13
2019-01-06T09:56:46.480Z,18.15
2019-01-06T09:59:36.070Z,18.10
2019-01-06T10:02:44.891Z,18.12
2019-01-06T10:05:42.028Z,18.12
2019-01-06T10:08:32.644Z,18.19
2019-01-06T10:11:26.405Z,18.07
2019-01-06T10:14:20.188Z,18.21
2019-01-06T10:17:10.066Z,18.02
2019-01-06T10:19:59.199Z,18.02
2019-01-06T10:22:52.905Z,18.15
2019-01-06T10:25:45.651Z,18.09
2019-01-06T10:28:34.816Z,18.14
2019-01-06T10:31:28.689Z,18.03
2019-01-06T10:34:18.521Z,18.05
2019-01-06T10:37:15.578Z,17.97
2019-01-06T10:40:15.136Z,17.95
2019-01-06T10:43:18.115Z,17.95
2019-01-06T10:46:09.121Z,17.94
2019-01-06T10:49:09.403Z,17.97
2019-01-06T10:52:00.156Z,18.01
2019-01-06T10:54:49.220Z,17.81
2019-01-06T10:57:39.721Z,17.81
2019-01-06T11:00:45.876Z,17.87
2019-01-06T11:03:35.041Z,17.87
2019-01-06T11:06:44.069Z,17.83
2019-01-06T11:09:40.175Z,17.83
2019-01-06T11:12:42.888Z,17.84
2019-01-06T11:15:32.712Z,17.81
2019-01-06T11:18:23.528Z,17.81
2019-01-06T11:21:23.173Z,17.75
2019-01-06T11:24:22.877Z,17.76
2019-01-06T11:26:56.693Z,17.76
2019-01-06T11:30:05.515Z,17.70
2019-01-06T11:33:05.743Z,17.70
2019-01-06T11:35:56.655Z,17.67
2019-01-06T11:38:45.808Z,17.70
2019-01-06T11:41:34.978Z,17.70
2019-01-06T11:44:40.736Z,17.64
2019-01-06T11:47:49.461Z,17.67
2019-01-06T11:50:49.579Z,17.64
2019-01-06T11:53:38.502Z,17.56
2019-01-06T11:56:32.707Z,17.65
2019-01-06T11:59:29.053Z,17.50
2019-01-06T12:02:18.218Z,17.50
2019-01-06T12:05:27.118Z,17.61
2019-01-06T12:08:25.736Z,17.61
2019-01-06T12:11:28.217Z,17.69
2019-01-06T12:14:16.919Z,17.74
2019-01-06T12:17:18.931Z,17.75
2019-01-06T12:20:08.289Z,17.79
2019-01-06T12:22:57.362Z,17.77
2019-01-06T12:25:57.792Z,17.77
2019-01-06T12:28:51.573Z,17.77
2019-01-06T12:31:55.772Z,17.77
2019-01-06T12:34:44.533Z,17.79
2019-01-06T12:37:44.238Z,17.74
2019-01-06T12:40:35.338Z,17.74
2019-01-06T12:43:19.663Z,17.73
2019-01-06T12:46:18.598Z,17.73
2019-01-06T12:49:24.936Z,17.71
2019-01-06T12:52:27.521Z,17.69
2019-01-06T12:55:17.810Z,17.70
2019-01-06T12:58:08.515Z,17.70
2019-01-06T13:00:57.386Z,17.74
2019-01-06T13:03:56.470Z,17.74
2019-01-06T13:06:45.523Z,17.77
2019-01-06T13:09:33.975Z,17.77
2019-01-06T13:12:27.537Z,17.77
2019-01-06T13:15:20.293Z,17.77
2019-01-06T13:18:09.246Z,17.71
2019-01-06T13:20:58.023Z,17.71
2019-01-06T13:23:46.663Z,17.77
2019-01-06T13:26:52.445Z,17.77
2019-01-06T13:29:43.188Z,17.76
2019-01-06T13:32:51.355Z,17.79
2019-01-06T13:35:41.547Z,17.79
2019-01-06T13:38:31.476Z,17.77
2019-01-06T13:41:28.197Z,17.72
2019-01-06T13:44:36.593Z,17.75
2019-01-06T13:47:33.205Z,17.75
2019-01-06T13:50:24.929Z,17.79
2019-01-06T13:53:15.660Z,17.79
2019-01-06T13:56:05.322Z,17.77
2019-01-06T13:59:14.245Z,17.53
2019-01-06T14:02:03.622Z,17.73
2019-01-06T14:04:54.933Z,17.74
2019-01-06T14:07:48.493Z,17.75
2019-01-06T14:10:48.113Z,17.72
2019-01-06T14:13:36.566Z,17.75
2019-01-06T14:16:30.567Z,17.74
2019-01-06T14:19:30.049Z,17.74
2019-01-06T14:22:27.137Z,17.76
2019-01-06T14:25:15.965Z,17.76
2019-01-06T14:28:06.346Z,17.76
2019-01-06T14:30:56.629Z,17.76
2019-01-06T14:34:03.724Z,17.76
2019-01-06T14:37:00.047Z,17.76
2019-01-06T14:39:48.258Z,17.74
2019-01-06T14:42:44.422Z,17.44
2019-01-06T14:46:04.004Z,16.98
2019-01-06T14:48:54.084Z,16.98
2019-01-06T14:51:44.687Z,16.91
2019-01-06T14:54:32.151Z,16.76
2019-01-06T14:57:17.864Z,16.76
2019-01-06T15:00:13.811Z,16.66
2019-01-06T15:03:10.147Z,16.74
2019-01-06T15:06:14.993Z,16.72
2019-01-06T15:09:04.349Z,16.63
2019-01-06T15:12:04.711Z,16.63
2019-01-06T15:15:04.298Z,16.57
2019-01-06T15:17:55.203Z,16.59
2019-01-06T15:20:45.591Z,16.61
2019-01-06T15:23:39.166Z,16.56
2019-01-06T15:26:28.214Z,16.52
2019-01-06T15:29:27.525Z,16.52
2019-01-06T15:32:09.947Z,16.52
2019-01-06T15:35:00.151Z,16.52
2019-01-06T15:37:41.378Z,16.48
2019-01-06T15:40:30.372Z,16.39
2019-01-06T15:43:35.800Z,16.52
2019-01-06T15:46:32.342Z,16.52
2019-01-06T15:49:21.348Z,16.45
2019-01-06T15:52:20.399Z,16.44
2019-01-06T15:55:20.114Z,16.45
2019-01-06T15:58:26.070Z,16.42
2019-01-06T16:01:26.185Z,16.35
2019-01-06T16:04:15.164Z,16.22
2019-01-06T16:07:04.419Z,16.30
2019-01-06T16:09:55.137Z,16.30
2019-01-06T16:12:43.879Z,16.26
2019-01-06T16:15:32.935Z,16.26
2019-01-06T16:18:23.634Z,16.20
2019-01-06T16:21:12.516Z,16.19
2019-01-06T16:24:18.146Z,16.29
2019-01-06T16:27:02.721Z,16.22
2019-01-06T16:29:51.553Z,16.25
2019-01-06T16:32:48.012Z,16.22
2019-01-06T16:35:41.469Z,16.15
2019-01-06T16:38:32.621Z,16.15
2019-01-06T16:41:23.288Z,16.13
2019-01-06T16:44:12.028Z,16.00
2019-01-06T16:47:05.594Z,16.04
2019-01-06T16:49:53.939Z,16.13
2019-01-06T16:53:02.421Z,16.13
2019-01-06T16:55:55.731Z,16.03
2019-01-06T16:58:46.845Z,16.07
2019-01-06T17:01:49.629Z,15.98
2019-01-06T17:04:40.712Z,15.97
2019-01-06T17:07:26.636Z,15.97
2019-01-06T17:10:28.914Z,15.96
2019-01-06T17:13:19.993Z,15.97
2019-01-06T17:16:10.304Z,15.97
2019-01-06T17:19:03.753Z,15.87
2019-01-06T17:21:57.006Z,15.87
2019-01-06T17:25:06.195Z,15.90
2019-01-06T17:27:55.128Z,15.90
2019-01-06T17:30:51.451Z,15.83
2019-01-06T17:33:42.934Z,15.82
2019-01-06T17:36:34.043Z,15.74
2019-01-06T17:39:35.432Z,15.78
2019-01-06T17:42:24.094Z,15.78
2019-01-06T17:45:15.490Z,15.77
2019-01-06T17:48:04.264Z,15.77
2019-01-06T17:50:58.048Z,15.73
2019-01-06T17:54:03.163Z,15.68
2019-01-06T17:56:53.390Z,15.77
2019-01-06T17:59:43.428Z,15.73
2019-01-06T18:02:36.997Z,15.72
2019-01-06T18:05:25.675Z,15.76
2019-01-06T18:08:14.216Z,15.76
2019-01-06T18:11:02.648Z,15.66
2019-01-06T18:14:11.796Z,15.63
2019-01-06T18:17:00.949Z,15.67
2019-01-06T18:19:57.299Z,15.67
2019-01-06T18:22:59.576Z,15.66
2019-01-06T18:25:48.844Z,15.55
2019-01-06T18:28:39.131Z,15.55
2019-01-06T18:31:28.293Z,15.41
2019-01-06T18:34:21.556Z,15.56
2019-01-06T18:37:10.926Z,15.54
2019-01-06T18:39:59.791Z,15.58
2019-01-06T18:42:44.780Z,15.39
2019-01-06T18:45:27.976Z,15.41
2019-01-06T18:48:30.754Z,15.47
2019-01-06T18:51:36.085Z,15.47
2019-01-06T18:54:38.679Z,15.33
2019-01-06T18:57:41.068Z,15.33
2019-01-06T19:00:37.698Z,15.29
2019-01-06T19:03:43.634Z,15.29
2019-01-06T19:06:52.071Z,15.32
2019-01-06T19:09:41.381Z,15.17
2019-01-06T19:12:39.205Z,15.17
2019-01-06T19:15:38.612Z,15.12
2019-01-06T19:18:28.383Z,15.18
2019-01-06T19:21:24.513Z,14.93
2019-01-06T19:24:25.048Z,15.10
2019-01-06T19:27:27.838Z,15.10
2019-01-06T19:30:21.286Z,15.15
2019-01-06T19:33:09.974Z,15.15
2019-01-06T19:36:06.687Z,15.20
2019-01-06T19:39:09.679Z,15.20
2019-01-06T19:42:03.438Z,15.20
2019-01-06T19:45:05.505Z,15.24
2019-01-06T19:48:01.650Z,15.20
2019-01-06T19:50:51.549Z,15.13
2019-01-06T19:53:48.474Z,15.13
2019-01-06T19:56:38.896Z,15.04
2019-01-06T19:59:33.518Z,15.04
2019-01-06T20:02:24.019Z,15.12
2019-01-06T20:05:26.976Z,15.06
2019-01-06T20:08:15.999Z,15.05
2019-01-06T20:11:18.516Z,15.06
2019-01-06T20:14:07.545Z,15.06
2019-01-06T20:16:56.710Z,15.02
2019-01-06T20:19:49.759Z,15.02
2019-01-06T20:22:46.923Z,15.01
2019-01-06T20:25:52.774Z,15.01
2019-01-06T20:28:52.786Z,14.97
2019-01-06T20:31:41.786Z,14.97
2019-01-06T20:34:48.321Z,14.89
2019-01-06T20:37:47.048Z,14.89
2019-01-06T20:40:43.772Z,14.88
2019-01-06T20:43:32.724Z,14.81
2019-01-06T20:46:21.577Z,14.82
2019-01-06T20:49:30.221Z,14.82
2019-01-06T20:52:20.791Z,14.91
2019-01-06T20:55:26.864Z,14.91
2019-01-06T20:58:23.879Z,14.81
2019-01-06T21:01:16.748Z,14.88
2019-01-06T21:04:13.623Z,14.88
2019-01-06T21:07:06.760Z,14.75
2019-01-06T21:09:55.404Z,14.75
2019-01-06T21:12:44.562Z,14.74
2019-01-06T21:15:50.117Z,14.75
2019-01-06T21:18:44.678Z,14.75
2019-01-06T21:21:29.380Z,14.72
2019-01-06T21:24:31.961Z,14.71
2019-01-06T21:27:21.416Z,14.68
2019-01-06T21:30:10.071Z,14.62
2019-01-06T21:33:15.418Z,14.62
2019-01-06T21:36:04.175Z,14.66
2019-01-06T21:38:52.944Z,14.61
2019-01-06T21:41:43.303Z,14.45
2019-01-06T21:44:45.504Z,14.45
2019-01-06T21:47:33.947Z,14.52
2019-01-06T21:50:27.203Z,14.52
2019-01-06T21:53:17.401Z,14.52
2019-01-06T21:56:13.945Z,14.49
2019-01-06T21:59:15.383Z,14.49
2019-01-06T22:02:04.668Z,14.51
2019-01-06T22:05:13.698Z,14.42
2019-01-06T22:08:02.657Z,14.48
2019-01-06T22:10:51.711Z,14.48
2019-01-06T22:13:35.664Z,14.52
2019-01-06T22:16:24.527Z,14.44
2019-01-06T22:19:30.568Z,14.55
2019-01-06T22:22:19.537Z,14.55
2019-01-06T22:25:28.966Z,14.47
2019-01-06T22:28:17.737Z,14.40
2019-01-06T22:31:06.891Z,14.40
2019-01-06T22:34:06.518Z,14.48
2019-01-06T22:37:02.638Z,14.38
2019-01-06T22:40:01.838Z,14.36
2019-01-06T22:42:52.626Z,14.38
2019-01-06T22:45:52.141Z,14.38
2019-01-06T22:48:55.240Z,14.39
2019-01-06T22:51:44.202Z,14.22
2019-01-06T22:54:33.235Z,14.32
2019-01-06T22:57:22.413Z,14.25
2019-01-06T23:00:18.949Z,14.08
2019-01-06T23:03:17.363Z,14.12
2019-01-06T23:06:06.715Z,14.12
2019-01-06T23:08:50.563Z,14.23
2019-01-06T23:11:39.491Z,14.23
2019-01-06T23:14:28.681Z,14.03
2019-01-06T23:17:17.852Z,14.15
2019-01-06T23:20:08.127Z,14.15
2019-01-06T23:23:17.466Z,14.14
2019-01-06T23:26:10.622Z,14.16
2019-01-06T23:29:06.717Z,14.16
2019-01-06T23:32:03.231Z,14.13
2019-01-06T23:34:53.992Z,14.00
2019-01-06T23:37:43.151Z,14.04
2019-01-06T23:40:33.959Z,14.01
2019-01-06T23:43:22.937Z,14.01
2019-01-06T23:46:11.878Z,14.05
2019-01-06T23:49:14.459Z,14.00
2019-01-06T23:52:08.037Z,13.99
2019-01-06T23:54:56.674Z,13.99
2019-01-06T23:57:50.055Z,13.90
